sensor_id;sensor_type;location;lat;lon;timestamp;temperature;humidity
20284;DHT22;10301;50.832;4.080;2023-04-25T00:02:04;10.60;1.00
20284;DHT22;10301;50.832;4.080;2023-04-25T00:04:30;10.80;1.00
20284;DHT22;10301;50.832;4.080;2023-04-25T00:06:59;10.50;1.00
20284;DHT22;10301;50.832;4.080;2023-04-25T00:09:27;10.50;1.00
20284;DHT22;10301;50.832;4.080;2023-04-25T00:11:53;10.40;1.00
20284;DHT22;10301;50.832;4.080;2023-04-25T00:14:18;10.30;1.00
20284;DHT22;10301;50.832;4.080;2023-04-25T00:16:44;10.70;1.00
20284;DHT22;10301;50.832;4.080;2023-04-25T00:19:10;10.60;1.00
20284;DHT22;10301;50.832;4.080;2023-04-25T00:21:36;10.80;1.00
20284;DHT22;10301;50.832;4.080;2023-04-25T00:24:03;10.70;1.00
20284;DHT22;10301;50.832;4.080;2023-04-25T00:26:29;10.40;1.00
20284;DHT22;10301;50.832;4.080;2023-04-25T00:28:54;10.60;1.00
20284;DHT22;10301;50.832;4.080;2023-04-25T00:31:21;10.70;1.00
20284;DHT22;10301;50.832;4.080;2023-04-25T00:33:47;10.90;1.00
20284;DHT22;10301;50.832;4.080;2023-04-25T00:36:13;10.70;1.00
20284;DHT22;10301;50.832;4.080;2023-04-25T00:38:40;10.60;1.00
20284;DHT22;10301;50.832;4.080;2023-04-25T00:41:07;10.60;1.00
20284;DHT22;10301;50.832;4.080;2023-04-25T00:43:33;10.30;1.00
20284;DHT22;10301;50.832;4.080;2023-04-25T00:46:00;10.10;1.00
20284;DHT22;10301;50.832;4.080;2023-04-25T00:48:26;10.10;1.00
20284;DHT22;10301;50.832;4.080;2023-04-25T00:50:54;10.00;1.00
20284;DHT22;10301;50.832;4.080;2023-04-25T00:53:25;10.00;13.10
20284;DHT22;10301;50.832;4.080;2023-04-25T00:55:51;10.30;1.00
20284;DHT22;10301;50.832;4.080;2023-04-25T00:58:18;10.20;1.00
20284;DHT22;10301;50.832;4.080;2023-04-25T01:00:48;10.40;1.00
20284;DHT22;10301;50.832;4.080;2023-04-25T01:03:16;10.40;1.00
20284;DHT22;10301;50.832;4.080;2023-04-25T01:05:43;10.50;1.00
20284;DHT22;10301;50.832;4.080;2023-04-25T01:08:09;10.30;1.00
20284;DHT22;10301;50.832;4.080;2023-04-25T01:10:35;10.30;1.00
20284;DHT22;10301;50.832;4.080;2023-04-25T01:13:01;10.50;1.00
20284;DHT22;10301;50.832;4.080;2023-04-25T01:15:27;10.50;1.00
20284;DHT22;10301;50.832;4.080;2023-04-25T01:17:53;10.50;1.00
20284;DHT22;10301;50.832;4.080;2023-04-25T01:20:21;10.50;1.00
20284;DHT22;10301;50.832;4.080;2023-04-25T01:22:48;10.30;1.00
20284;DHT22;10301;50.832;4.080;2023-04-25T01:25:15;10.30;1.00
20284;DHT22;10301;50.832;4.080;2023-04-25T01:27:41;10.30;3.00
20284;DHT22;10301;50.832;4.080;2023-04-25T01:30:07;10.50;1.00
20284;DHT22;10301;50.832;4.080;2023-04-25T01:32:33;10.10;15.60
20284;DHT22;10301;50.832;4.080;2023-04-25T01:35:06;10.20;9.60
20284;DHT22;10301;50.832;4.080;2023-04-25T01:37:44;9.90;21.40
20284;DHT22;10301;50.832;4.080;2023-04-25T01:40:11;10.10;24.30
20284;DHT22;10301;50.832;4.080;2023-04-25T01:42:40;10.30;15.30
20284;DHT22;10301;50.832;4.080;2023-04-25T01:45:07;10.20;12.50
20284;DHT22;10301;50.832;4.080;2023-04-25T01:47:33;10.10;18.00
20284;DHT22;10301;50.832;4.080;2023-04-25T01:50:01;10.20;20.80
20284;DHT22;10301;50.832;4.080;2023-04-25T01:52:27;10.20;21.40
20284;DHT22;10301;50.832;4.080;2023-04-25T01:54:53;10.30;14.00
20284;DHT22;10301;50.832;4.080;2023-04-25T01:57:19;10.40;14.70
20284;DHT22;10301;50.832;4.080;2023-04-25T01:59:45;10.40;14.40
20284;DHT22;10301;50.832;4.080;2023-04-25T02:02:11;10.40;13.80
20284;DHT22;10301;50.832;4.080;2023-04-25T02:04:37;10.40;15.70
20284;DHT22;10301;50.832;4.080;2023-04-25T02:07:03;10.30;16.60
20284;DHT22;10301;50.832;4.080;2023-04-25T02:09:29;10.30;24.30
20284;DHT22;10301;50.832;4.080;2023-04-25T02:11:55;10.30;22.00
20284;DHT22;10301;50.832;4.080;2023-04-25T02:14:20;10.30;24.50
20284;DHT22;10301;50.832;4.080;2023-04-25T02:16:46;10.20;27.00
20284;DHT22;10301;50.832;4.080;2023-04-25T02:19:12;10.20;29.50
20284;DHT22;10301;50.832;4.080;2023-04-25T02:21:38;10.00;31.40
20284;DHT22;10301;50.832;4.080;2023-04-25T02:24:04;9.90;49.00
20284;DHT22;10301;50.832;4.080;2023-04-25T02:26:30;10.00;50.10
20284;DHT22;10301;50.832;4.080;2023-04-25T02:28:56;10.00;49.90
20284;DHT22;10301;50.832;4.080;2023-04-25T02:31:22;10.00;52.40
20284;DHT22;10301;50.832;4.080;2023-04-25T02:33:48;10.10;44.60
20284;DHT22;10301;50.832;4.080;2023-04-25T02:36:14;10.20;41.60
20284;DHT22;10301;50.832;4.080;2023-04-25T02:38:40;9.90;51.10
20284;DHT22;10301;50.832;4.080;2023-04-25T02:41:06;9.90;55.70
20284;DHT22;10301;50.832;4.080;2023-04-25T02:43:32;10.10;39.00
20284;DHT22;10301;50.832;4.080;2023-04-25T02:45:57;9.90;26.40
20284;DHT22;10301;50.832;4.080;2023-04-25T02:48:23;9.50;36.90
20284;DHT22;10301;50.832;4.080;2023-04-25T02:50:49;9.70;33.20
20284;DHT22;10301;50.832;4.080;2023-04-25T02:53:14;9.60;28.10
20284;DHT22;10301;50.832;4.080;2023-04-25T02:55:40;9.50;36.00
20284;DHT22;10301;50.832;4.080;2023-04-25T02:58:06;9.50;34.40
20284;DHT22;10301;50.832;4.080;2023-04-25T03:00:32;9.60;35.60
20284;DHT22;10301;50.832;4.080;2023-04-25T03:02:57;9.30;32.90
20284;DHT22;10301;50.832;4.080;2023-04-25T03:05:23;9.10;37.10
20284;DHT22;10301;50.832;4.080;2023-04-25T03:07:49;9.30;24.60
20284;DHT22;10301;50.832;4.080;2023-04-25T03:10:14;9.40;6.00
20284;DHT22;10301;50.832;4.080;2023-04-25T03:12:40;9.30;1.00
20284;DHT22;10301;50.832;4.080;2023-04-25T03:15:06;9.20;16.50
20284;DHT22;10301;50.832;4.080;2023-04-25T03:17:32;9.20;17.10
20284;DHT22;10301;50.832;4.080;2023-04-25T03:19:58;9.30;18.40
20284;DHT22;10301;50.832;4.080;2023-04-25T03:22:24;9.10;35.60
20284;DHT22;10301;50.832;4.080;2023-04-25T03:24:50;9.10;41.00
20284;DHT22;10301;50.832;4.080;2023-04-25T03:27:16;8.90;30.00
20284;DHT22;10301;50.832;4.080;2023-04-25T03:29:42;8.80;53.70
20284;DHT22;10301;50.832;4.080;2023-04-25T03:32:08;9.00;35.20
20284;DHT22;10301;50.832;4.080;2023-04-25T03:34:33;9.20;11.40
20284;DHT22;10301;50.832;4.080;2023-04-25T03:36:59;9.10;20.30
20284;DHT22;10301;50.832;4.080;2023-04-25T03:39:25;9.00;24.80
20284;DHT22;10301;50.832;4.080;2023-04-25T03:41:51;9.10;22.90
20284;DHT22;10301;50.832;4.080;2023-04-25T03:44:16;9.20;21.90
20284;DHT22;10301;50.832;4.080;2023-04-25T03:46:42;9.10;27.30
20284;DHT22;10301;50.832;4.080;2023-04-25T03:49:08;8.80;25.60
20284;DHT22;10301;50.832;4.080;2023-04-25T03:51:34;8.80;36.80
20284;DHT22;10301;50.832;4.080;2023-04-25T03:53:59;9.00;23.10
20284;DHT22;10301;50.832;4.080;2023-04-25T03:56:25;9.00;26.80
20284;DHT22;10301;50.832;4.080;2023-04-25T03:58:51;9.10;30.10
20284;DHT22;10301;50.832;4.080;2023-04-25T04:01:17;9.20;22.50
20284;DHT22;10301;50.832;4.080;2023-04-25T04:03:42;9.20;26.60
20284;DHT22;10301;50.832;4.080;2023-04-25T04:06:08;9.20;28.20
20284;DHT22;10301;50.832;4.080;2023-04-25T04:08:34;9.20;39.00
20284;DHT22;10301;50.832;4.080;2023-04-25T04:11:00;9.20;43.30
20284;DHT22;10301;50.832;4.080;2023-04-25T04:13:27;9.20;39.00
20284;DHT22;10301;50.832;4.080;2023-04-25T04:15:52;9.20;39.50
20284;DHT22;10301;50.832;4.080;2023-04-25T04:18:18;9.30;36.50
20284;DHT22;10301;50.832;4.080;2023-04-25T04:20:44;9.30;36.60
20284;DHT22;10301;50.832;4.080;2023-04-25T04:23:10;9.30;37.10
20284;DHT22;10301;50.832;4.080;2023-04-25T04:25:36;9.30;40.20
20284;DHT22;10301;50.832;4.080;2023-04-25T04:28:02;9.20;43.80
20284;DHT22;10301;50.832;4.080;2023-04-25T04:30:28;9.20;43.00
20284;DHT22;10301;50.832;4.080;2023-04-25T04:32:57;9.10;48.10
20284;DHT22;10301;50.832;4.080;2023-04-25T04:35:23;9.20;42.10
20284;DHT22;10301;50.832;4.080;2023-04-25T04:37:49;9.20;36.70
20284;DHT22;10301;50.832;4.080;2023-04-25T04:40:16;9.20;32.10
20284;DHT22;10301;50.832;4.080;2023-04-25T04:42:43;9.00;33.90
20284;DHT22;10301;50.832;4.080;2023-04-25T04:45:09;8.80;20.60
20284;DHT22;10301;50.832;4.080;2023-04-25T04:47:35;8.90;27.20
20284;DHT22;10301;50.832;4.080;2023-04-25T04:50:03;9.00;22.20
20284;DHT22;10301;50.832;4.080;2023-04-25T04:52:29;8.60;31.00
20284;DHT22;10301;50.832;4.080;2023-04-25T04:54:55;8.70;22.40
20284;DHT22;10301;50.832;4.080;2023-04-25T04:57:21;8.80;9.40
20284;DHT22;10301;50.832;4.080;2023-04-25T04:59:46;8.80;1.00
20284;DHT22;10301;50.832;4.080;2023-04-25T05:02:12;8.50;1.00
20284;DHT22;10301;50.832;4.080;2023-04-25T05:04:38;8.60;12.70
20284;DHT22;10301;50.832;4.080;2023-04-25T05:07:03;8.70;1.00
20284;DHT22;10301;50.832;4.080;2023-04-25T05:09:29;8.80;1.00
20284;DHT22;10301;50.832;4.080;2023-04-25T05:11:55;8.80;1.00
20284;DHT22;10301;50.832;4.080;2023-04-25T05:14:21;8.90;1.00
20284;DHT22;10301;50.832;4.080;2023-04-25T05:16:48;9.10;1.00
20284;DHT22;10301;50.832;4.080;2023-04-25T05:19:13;9.10;1.00
20284;DHT22;10301;50.832;4.080;2023-04-25T05:21:39;9.10;1.00
20284;DHT22;10301;50.832;4.080;2023-04-25T05:24:05;9.10;1.00
20284;DHT22;10301;50.832;4.080;2023-04-25T05:26:31;9.00;1.00
20284;DHT22;10301;50.832;4.080;2023-04-25T05:28:57;8.90;1.00
20284;DHT22;10301;50.832;4.080;2023-04-25T05:31:23;9.10;1.00
20284;DHT22;10301;50.832;4.080;2023-04-25T05:33:49;9.10;1.00
20284;DHT22;10301;50.832;4.080;2023-04-25T05:36:14;9.10;1.00
20284;DHT22;10301;50.832;4.080;2023-04-25T05:38:40;9.10;1.00
20284;DHT22;10301;50.832;4.080;2023-04-25T05:41:06;9.20;1.00
20284;DHT22;10301;50.832;4.080;2023-04-25T05:43:32;9.20;1.00
20284;DHT22;10301;50.832;4.080;2023-04-25T05:45:58;9.20;1.00
20284;DHT22;10301;50.832;4.080;2023-04-25T05:48:24;9.20;1.00
20284;DHT22;10301;50.832;4.080;2023-04-25T05:50:50;9.00;1.00
20284;DHT22;10301;50.832;4.080;2023-04-25T05:53:17;9.30;1.00
20284;DHT22;10301;50.832;4.080;2023-04-25T05:55:43;9.40;1.00
20284;DHT22;10301;50.832;4.080;2023-04-25T05:58:08;9.40;1.00
20284;DHT22;10301;50.832;4.080;2023-04-25T06:00:34;9.40;1.00
20284;DHT22;10301;50.832;4.080;2023-04-25T06:03:00;9.50;1.00
20284;DHT22;10301;50.832;4.080;2023-04-25T06:05:26;9.70;1.00
20284;DHT22;10301;50.832;4.080;2023-04-25T06:07:52;9.80;1.00
20284;DHT22;10301;50.832;4.080;2023-04-25T06:10:18;9.80;1.00
20284;DHT22;10301;50.832;4.080;2023-04-25T06:12:43;9.90;1.00
20284;DHT22;10301;50.832;4.080;2023-04-25T06:15:09;9.90;1.00
20284;DHT22;10301;50.832;4.080;2023-04-25T06:17:35;9.80;1.00
20284;DHT22;10301;50.832;4.080;2023-04-25T06:20:01;9.50;1.00
20284;DHT22;10301;50.832;4.080;2023-04-25T06:22:27;9.80;1.00
20284;DHT22;10301;50.832;4.080;2023-04-25T06:24:53;10.10;1.00
20284;DHT22;10301;50.832;4.080;2023-04-25T06:27:18;10.30;1.00
20284;DHT22;10301;50.832;4.080;2023-04-25T06:29:44;10.30;1.00
20284;DHT22;10301;50.832;4.080;2023-04-25T06:32:10;9.80;1.00
20284;DHT22;10301;50.832;4.080;2023-04-25T06:34:35;9.50;1.00
20284;DHT22;10301;50.832;4.080;2023-04-25T06:37:01;9.60;1.00
20284;DHT22;10301;50.832;4.080;2023-04-25T06:39:26;9.60;1.00
20284;DHT22;10301;50.832;4.080;2023-04-25T06:41:52;9.80;1.00
20284;DHT22;10301;50.832;4.080;2023-04-25T06:44:18;10.00;1.00
20284;DHT22;10301;50.832;4.080;2023-04-25T06:46:44;10.00;1.00
20284;DHT22;10301;50.832;4.080;2023-04-25T06:49:10;10.20;1.00
20284;DHT22;10301;50.832;4.080;2023-04-25T06:51:35;10.20;1.00
20284;DHT22;10301;50.832;4.080;2023-04-25T06:54:01;10.40;1.00
20284;DHT22;10301;50.832;4.080;2023-04-25T06:56:28;10.20;1.00
20284;DHT22;10301;50.832;4.080;2023-04-25T06:58:55;10.20;1.00
20284;DHT22;10301;50.832;4.080;2023-04-25T07:01:20;9.80;1.00
20284;DHT22;10301;50.832;4.080;2023-04-25T07:03:46;10.10;1.00
20284;DHT22;10301;50.832;4.080;2023-04-25T07:06:11;10.20;1.00
20284;DHT22;10301;50.832;4.080;2023-04-25T07:08:37;10.30;1.00
20284;DHT22;10301;50.832;4.080;2023-04-25T07:11:03;10.40;1.00
20284;DHT22;10301;50.832;4.080;2023-04-25T07:13:28;10.50;1.00
20284;DHT22;10301;50.832;4.080;2023-04-25T07:15:55;11.00;1.00
20284;DHT22;10301;50.832;4.080;2023-04-25T07:18:21;11.30;99.90
20284;DHT22;10301;50.832;4.080;2023-04-25T07:20:47;11.20;1.00
20284;DHT22;10301;50.832;4.080;2023-04-25T07:23:12;10.90;99.90
20284;DHT22;10301;50.832;4.080;2023-04-25T07:25:38;10.90;1.00
20284;DHT22;10301;50.832;4.080;2023-04-25T07:28:04;10.90;1.00
20284;DHT22;10301;50.832;4.080;2023-04-25T07:30:30;10.80;1.00
20284;DHT22;10301;50.832;4.080;2023-04-25T07:32:56;11.30;1.00
20284;DHT22;10301;50.832;4.080;2023-04-25T07:35:21;11.40;1.00
20284;DHT22;10301;50.832;4.080;2023-04-25T07:37:47;11.40;1.00
20284;DHT22;10301;50.832;4.080;2023-04-25T07:40:13;11.50;1.00
20284;DHT22;10301;50.832;4.080;2023-04-25T07:42:41;11.50;36.10
20284;DHT22;10301;50.832;4.080;2023-04-25T07:45:07;11.10;1.00
20284;DHT22;10301;50.832;4.080;2023-04-25T07:47:32;11.30;41.50
20284;DHT22;10301;50.832;4.080;2023-04-25T07:49:58;11.50;1.00
20284;DHT22;10301;50.832;4.080;2023-04-25T07:52:24;11.50;1.00
20284;DHT22;10301;50.832;4.080;2023-04-25T07:54:50;11.20;1.00
20284;DHT22;10301;50.832;4.080;2023-04-25T07:57:16;11.20;99.90
20284;DHT22;10301;50.832;4.080;2023-04-25T07:59:42;11.30;99.90
20284;DHT22;10301;50.832;4.080;2023-04-25T08:02:08;11.50;99.90
20284;DHT22;10301;50.832;4.080;2023-04-25T08:04:33;11.50;1.00
20284;DHT22;10301;50.832;4.080;2023-04-25T08:06:59;11.50;1.00
20284;DHT22;10301;50.832;4.080;2023-04-25T08:09:25;11.10;99.90
20284;DHT22;10301;50.832;4.080;2023-04-25T08:11:51;10.80;1.00
20284;DHT22;10301;50.832;4.080;2023-04-25T08:14:17;11.30;99.90
20284;DHT22;10301;50.832;4.080;2023-04-25T08:16:43;11.30;93.90
20284;DHT22;10301;50.832;4.080;2023-04-25T08:19:09;11.40;1.00
20284;DHT22;10301;50.832;4.080;2023-04-25T08:21:35;11.30;1.00
20284;DHT22;10301;50.832;4.080;2023-04-25T08:24:01;11.00;99.90
20284;DHT22;10301;50.832;4.080;2023-04-25T08:26:28;10.90;1.00
20284;DHT22;10301;50.832;4.080;2023-04-25T08:28:54;11.10;1.00
20284;DHT22;10301;50.832;4.080;2023-04-25T08:31:19;11.10;1.00
20284;DHT22;10301;50.832;4.080;2023-04-25T08:33:46;11.30;1.00
20284;DHT22;10301;50.832;4.080;2023-04-25T08:36:11;11.50;99.90
20284;DHT22;10301;50.832;4.080;2023-04-25T08:38:37;11.50;1.00
20284;DHT22;10301;50.832;4.080;2023-04-25T08:41:03;11.30;1.00
20284;DHT22;10301;50.832;4.080;2023-04-25T08:43:29;11.70;1.00
20284;DHT22;10301;50.832;4.080;2023-04-25T08:45:59;11.90;99.90
20284;DHT22;10301;50.832;4.080;2023-04-25T08:48:27;12.10;1.00
20284;DHT22;10301;50.832;4.080;2023-04-25T08:50:55;11.80;99.90
20284;DHT22;10301;50.832;4.080;2023-04-25T08:53:32;11.60;1.00
20284;DHT22;10301;50.832;4.080;2023-04-25T08:55:59;11.60;1.00
20284;DHT22;10301;50.832;4.080;2023-04-25T08:58:27;11.40;99.90
20284;DHT22;10301;50.832;4.080;2023-04-25T09:00:53;11.60;1.00
20284;DHT22;10301;50.832;4.080;2023-04-25T09:03:19;11.40;99.90
20284;DHT22;10301;50.832;4.080;2023-04-25T09:05:45;11.50;99.90
20284;DHT22;10301;50.832;4.080;2023-04-25T09:08:11;11.70;1.00
20284;DHT22;10301;50.832;4.080;2023-04-25T09:10:37;11.80;92.10
20284;DHT22;10301;50.832;4.080;2023-04-25T09:13:17;11.90;99.90
20284;DHT22;10301;50.832;4.080;2023-04-25T09:15:51;11.90;1.00
20284;DHT22;10301;50.832;4.080;2023-04-25T09:18:31;11.80;1.00
20284;DHT22;10301;50.832;4.080;2023-04-25T09:23:30;11.20;1.00
20284;DHT22;10301;50.832;4.080;2023-04-25T09:26:03;10.70;1.00
20284;DHT22;10301;50.832;4.080;2023-04-25T09:28:32;10.90;1.00
20284;DHT22;10301;50.832;4.080;2023-04-25T09:30:58;11.20;1.00
20284;DHT22;10301;50.832;4.080;2023-04-25T09:33:31;11.60;1.00
20284;DHT22;10301;50.832;4.080;2023-04-25T09:36:06;11.60;1.00
20284;DHT22;10301;50.832;4.080;2023-04-25T09:38:43;12.00;1.00
20284;DHT22;10301;50.832;4.080;2023-04-25T09:41:10;11.30;99.90
20284;DHT22;10301;50.832;4.080;2023-04-25T09:43:36;11.20;1.00
20284;DHT22;10301;50.832;4.080;2023-04-25T09:46:02;10.70;1.00
20284;DHT22;10301;50.832;4.080;2023-04-25T09:48:29;10.40;99.90
20284;DHT22;10301;50.832;4.080;2023-04-25T09:51:20;10.10;1.00
20284;DHT22;10301;50.832;4.080;2023-04-25T09:53:50;10.30;3.80
20284;DHT22;10301;50.832;4.080;2023-04-25T09:56:16;10.70;99.90
20284;DHT22;10301;50.832;4.080;2023-04-25T09:58:42;10.80;99.90
20284;DHT22;10301;50.832;4.080;2023-04-25T10:01:09;11.10;99.90
20284;DHT22;10301;50.832;4.080;2023-04-25T10:03:39;11.60;1.00
20284;DHT22;10301;50.832;4.080;2023-04-25T10:06:16;12.10;1.00
20284;DHT22;10301;50.832;4.080;2023-04-25T10:08:44;12.20;99.90
20284;DHT22;10301;50.832;4.080;2023-04-25T10:11:10;12.60;1.00
20284;DHT22;10301;50.832;4.080;2023-04-25T10:13:39;13.30;1.00
20284;DHT22;10301;50.832;4.080;2023-04-25T10:16:05;13.90;99.90
20284;DHT22;10301;50.832;4.080;2023-04-25T10:18:32;14.00;99.90
20284;DHT22;10301;50.832;4.080;2023-04-25T10:21:00;14.00;1.00
20284;DHT22;10301;50.832;4.080;2023-04-25T10:23:27;13.80;1.00
20284;DHT22;10301;50.832;4.080;2023-04-25T10:25:53;13.40;1.00
20284;DHT22;10301;50.832;4.080;2023-04-25T10:28:19;12.80;1.00
20284;DHT22;10301;50.832;4.080;2023-04-25T10:31:07;12.00;23.40
20284;DHT22;10301;50.832;4.080;2023-04-25T10:33:37;11.10;1.00
20284;DHT22;10301;50.832;4.080;2023-04-25T10:38:39;10.20;1.00
20284;DHT22;10301;50.832;4.080;2023-04-25T10:41:07;10.20;1.00
20284;DHT22;10301;50.832;4.080;2023-04-25T10:48:48;10.50;1.00
20284;DHT22;10301;50.832;4.080;2023-04-25T10:51:22;10.50;99.90
20284;DHT22;10301;50.832;4.080;2023-04-25T10:54:05;10.40;99.90
20284;DHT22;10301;50.832;4.080;2023-04-25T10:56:40;10.50;1.00
20284;DHT22;10301;50.832;4.080;2023-04-25T10:59:19;10.90;1.00
20284;DHT22;10301;50.832;4.080;2023-04-25T11:01:52;11.20;99.90
20284;DHT22;10301;50.832;4.080;2023-04-25T11:04:28;11.30;1.00
20284;DHT22;10301;50.832;4.080;2023-04-25T11:09:24;11.70;99.90
20284;DHT22;10301;50.832;4.080;2023-04-25T11:11:57;11.40;1.00
20284;DHT22;10301;50.832;4.080;2023-04-25T11:14:24;11.70;99.90
20284;DHT22;10301;50.832;4.080;2023-04-25T11:16:54;11.80;1.00
20284;DHT22;10301;50.832;4.080;2023-04-25T11:19:21;12.00;99.90
20284;DHT22;10301;50.832;4.080;2023-04-25T11:21:47;12.30;1.00
20284;DHT22;10301;50.832;4.080;2023-04-25T11:24:13;12.70;1.00
20284;DHT22;10301;50.832;4.080;2023-04-25T11:26:41;12.90;1.00
20284;DHT22;10301;50.832;4.080;2023-04-25T11:29:06;12.70;99.90
20284;DHT22;10301;50.832;4.080;2023-04-25T11:31:32;12.40;99.90
20284;DHT22;10301;50.832;4.080;2023-04-25T11:33:58;12.20;1.00
20284;DHT22;10301;50.832;4.080;2023-04-25T11:36:24;11.70;1.00
20284;DHT22;10301;50.832;4.080;2023-04-25T11:38:52;12.00;99.90
20284;DHT22;10301;50.832;4.080;2023-04-25T11:41:21;11.70;1.00
20284;DHT22;10301;50.832;4.080;2023-04-25T11:43:48;11.70;99.90
20284;DHT22;10301;50.832;4.080;2023-04-25T11:46:15;11.50;99.90
20284;DHT22;10301;50.832;4.080;2023-04-25T11:48:41;11.10;99.90
20284;DHT22;10301;50.832;4.080;2023-04-25T11:51:08;11.30;1.00
20284;DHT22;10301;50.832;4.080;2023-04-25T11:53:34;11.70;1.00
20284;DHT22;10301;50.832;4.080;2023-04-25T11:56:01;12.00;1.00
20284;DHT22;10301;50.832;4.080;2023-04-25T11:58:26;12.30;1.00
20284;DHT22;10301;50.832;4.080;2023-04-25T12:00:52;12.20;1.00
20284;DHT22;10301;50.832;4.080;2023-04-25T12:03:18;12.50;99.90
20284;DHT22;10301;50.832;4.080;2023-04-25T12:05:45;13.00;1.00
20284;DHT22;10301;50.832;4.080;2023-04-25T12:08:15;13.40;1.00
20284;DHT22;10301;50.832;4.080;2023-04-25T12:10:43;13.70;1.00
20284;DHT22;10301;50.832;4.080;2023-04-25T12:15:45;13.20;1.00
20284;DHT22;10301;50.832;4.080;2023-04-25T12:18:10;13.10;1.00
20284;DHT22;10301;50.832;4.080;2023-04-25T12:20:36;13.60;99.90
20284;DHT22;10301;50.832;4.080;2023-04-25T12:23:05;13.50;99.90
20284;DHT22;10301;50.832;4.080;2023-04-25T12:25:39;13.40;99.90
20284;DHT22;10301;50.832;4.080;2023-04-25T12:28:21;13.50;99.90
20284;DHT22;10301;50.832;4.080;2023-04-25T12:31:06;13.20;1.00
20284;DHT22;10301;50.832;4.080;2023-04-25T12:33:33;13.30;1.00
20284;DHT22;10301;50.832;4.080;2023-04-25T12:35:59;13.30;1.00
20284;DHT22;10301;50.832;4.080;2023-04-25T12:38:30;13.70;1.00
20284;DHT22;10301;50.832;4.080;2023-04-25T12:40:57;13.90;1.00
20284;DHT22;10301;50.832;4.080;2023-04-25T12:43:24;13.70;1.00
20284;DHT22;10301;50.832;4.080;2023-04-25T12:45:50;13.40;1.00
20284;DHT22;10301;50.832;4.080;2023-04-25T12:48:17;13.60;1.00
20284;DHT22;10301;50.832;4.080;2023-04-25T12:50:43;13.40;1.00
20284;DHT22;10301;50.832;4.080;2023-04-25T12:53:10;13.60;1.00
20284;DHT22;10301;50.832;4.080;2023-04-25T12:55:37;13.70;1.00
20284;DHT22;10301;50.832;4.080;2023-04-25T12:58:02;13.60;1.00
20284;DHT22;10301;50.832;4.080;2023-04-25T13:00:29;13.60;1.00
20284;DHT22;10301;50.832;4.080;2023-04-25T13:02:55;13.20;97.10
20284;DHT22;10301;50.832;4.080;2023-04-25T13:05:21;13.10;1.00
20284;DHT22;10301;50.832;4.080;2023-04-25T13:07:47;12.50;99.90
20284;DHT22;10301;50.832;4.080;2023-04-25T13:10:13;12.40;99.90
20284;DHT22;10301;50.832;4.080;2023-04-25T13:12:38;12.70;99.90
20284;DHT22;10301;50.832;4.080;2023-04-25T13:15:04;13.00;35.60
20284;DHT22;10301;50.832;4.080;2023-04-25T13:17:30;13.00;1.00
20284;DHT22;10301;50.832;4.080;2023-04-25T13:19:56;12.90;99.90
20284;DHT22;10301;50.832;4.080;2023-04-25T13:22:21;12.90;99.90
20284;DHT22;10301;50.832;4.080;2023-04-25T13:24:47;12.70;99.90
20284;DHT22;10301;50.832;4.080;2023-04-25T13:27:13;12.90;18.40
20284;DHT22;10301;50.832;4.080;2023-04-25T13:29:39;12.80;1.00
20284;DHT22;10301;50.832;4.080;2023-04-25T13:32:06;12.80;99.90
20284;DHT22;10301;50.832;4.080;2023-04-25T13:34:32;13.20;1.00
20284;DHT22;10301;50.832;4.080;2023-04-25T13:36:58;13.80;1.00
20284;DHT22;10301;50.832;4.080;2023-04-25T13:39:24;14.20;1.00
20284;DHT22;10301;50.832;4.080;2023-04-25T13:41:49;14.30;1.00
20284;DHT22;10301;50.832;4.080;2023-04-25T13:44:15;13.90;1.00
20284;DHT22;10301;50.832;4.080;2023-04-25T13:46:41;13.30;1.00
20284;DHT22;10301;50.832;4.080;2023-04-25T13:49:07;13.30;1.00
20284;DHT22;10301;50.832;4.080;2023-04-25T13:51:33;13.50;1.00
20284;DHT22;10301;50.832;4.080;2023-04-25T13:53:58;13.30;1.00
20284;DHT22;10301;50.832;4.080;2023-04-25T13:56:24;13.30;1.00
20284;DHT22;10301;50.832;4.080;2023-04-25T13:58:50;13.30;1.00
20284;DHT22;10301;50.832;4.080;2023-04-25T14:01:17;13.40;1.00
20284;DHT22;10301;50.832;4.080;2023-04-25T14:03:43;13.10;99.90
20284;DHT22;10301;50.832;4.080;2023-04-25T14:06:09;13.30;70.50
20284;DHT22;10301;50.832;4.080;2023-04-25T14:08:36;12.90;99.90
20284;DHT22;10301;50.832;4.080;2023-04-25T14:11:02;12.90;47.70
20284;DHT22;10301;50.832;4.080;2023-04-25T14:13:28;13.20;99.90
20284;DHT22;10301;50.832;4.080;2023-04-25T14:15:54;13.20;99.90
20284;DHT22;10301;50.832;4.080;2023-04-25T14:18:20;13.20;99.90
20284;DHT22;10301;50.832;4.080;2023-04-25T14:20:46;12.20;1.00
20284;DHT22;10301;50.832;4.080;2023-04-25T14:23:11;12.40;1.00
20284;DHT22;10301;50.832;4.080;2023-04-25T14:25:37;13.00;1.00
20284;DHT22;10301;50.832;4.080;2023-04-25T14:28:03;12.90;1.00
20284;DHT22;10301;50.832;4.080;2023-04-25T14:30:29;13.00;1.00
20284;DHT22;10301;50.832;4.080;2023-04-25T14:32:55;12.90;1.00
20284;DHT22;10301;50.832;4.080;2023-04-25T14:35:20;12.90;1.00
20284;DHT22;10301;50.832;4.080;2023-04-25T14:37:46;13.20;1.00
20284;DHT22;10301;50.832;4.080;2023-04-25T14:40:13;13.60;1.00
20284;DHT22;10301;50.832;4.080;2023-04-25T14:42:40;13.10;11.50
20284;DHT22;10301;50.832;4.080;2023-04-25T14:45:07;12.70;1.00
20284;DHT22;10301;50.832;4.080;2023-04-25T14:47:34;12.60;1.00
20284;DHT22;10301;50.832;4.080;2023-04-25T14:50:00;12.70;1.00
20284;DHT22;10301;50.832;4.080;2023-04-25T14:52:26;13.20;1.00
20284;DHT22;10301;50.832;4.080;2023-04-25T14:54:52;13.30;1.00
20284;DHT22;10301;50.832;4.080;2023-04-25T14:57:18;13.60;1.00
20284;DHT22;10301;50.832;4.080;2023-04-25T14:59:44;13.70;1.00
20284;DHT22;10301;50.832;4.080;2023-04-25T15:02:11;13.80;1.00
20284;DHT22;10301;50.832;4.080;2023-04-25T15:04:36;13.90;1.00
20284;DHT22;10301;50.832;4.080;2023-04-25T15:07:02;13.90;1.00
20284;DHT22;10301;50.832;4.080;2023-04-25T15:09:28;14.10;1.00
20284;DHT22;10301;50.832;4.080;2023-04-25T15:11:53;13.90;1.00
20284;DHT22;10301;50.832;4.080;2023-04-25T15:14:19;14.10;1.00
20284;DHT22;10301;50.832;4.080;2023-04-25T15:16:45;14.20;1.00
20284;DHT22;10301;50.832;4.080;2023-04-25T15:19:11;14.50;99.90
20284;DHT22;10301;50.832;4.080;2023-04-25T15:21:36;14.10;1.00
20284;DHT22;10301;50.832;4.080;2023-04-25T15:24:02;14.00;99.90
20284;DHT22;10301;50.832;4.080;2023-04-25T15:26:28;13.80;99.90
20284;DHT22;10301;50.832;4.080;2023-04-25T15:28:54;13.70;99.90
20284;DHT22;10301;50.832;4.080;2023-04-25T15:31:19;13.60;1.00
20284;DHT22;10301;50.832;4.080;2023-04-25T15:33:45;13.30;1.00
20284;DHT22;10301;50.832;4.080;2023-04-25T15:36:11;13.20;1.00
20284;DHT22;10301;50.832;4.080;2023-04-25T15:38:37;13.30;1.00
20284;DHT22;10301;50.832;4.080;2023-04-25T15:41:03;13.50;1.00
20284;DHT22;10301;50.832;4.080;2023-04-25T15:43:30;13.40;1.00
20284;DHT22;10301;50.832;4.080;2023-04-25T15:45:55;13.10;1.00
20284;DHT22;10301;50.832;4.080;2023-04-25T15:48:22;13.20;1.00
20284;DHT22;10301;50.832;4.080;2023-04-25T15:50:48;13.30;1.00
20284;DHT22;10301;50.832;4.080;2023-04-25T15:53:14;13.20;1.00
20284;DHT22;10301;50.832;4.080;2023-04-25T15:55:39;13.20;1.00
20284;DHT22;10301;50.832;4.080;2023-04-25T15:58:05;13.40;1.00